createdAt,value
2018-06-28T00:00:37.536Z,102059.50
2018-06-28T00:05:40.615Z,102066.99
2018-06-28T00:10:43.746Z,102058.59
2018-06-28T00:15:46.850Z,102052.58
2018-06-28T00:20:50.069Z,102048.98
2018-06-28T00:25:54.107Z,102043.91
2018-06-28T00:30:57.391Z,102048.00
2018-06-28T00:36:00.710Z,102044.56
2018-06-28T00:41:04.045Z,102052.31
2018-06-28T00:46:07.782Z,102050.52
2018-06-28T00:51:10.971Z,102048.93
2018-06-28T00:56:14.252Z,102040.67
2018-06-28T01:01:17.394Z,102032.12
2018-06-28T01:06:20.480Z,102028.82
2018-06-28T01:11:23.671Z,102031.07
2018-06-28T01:16:27.351Z,102028.73
2018-06-28T01:21:30.482Z,102022.19
2018-06-28T01:26:33.611Z,102020.37
2018-06-28T01:31:36.768Z,102021.94
2018-06-28T01:36:39.949Z,102020.46
2018-06-28T01:41:54.414Z,102013.89
2018-06-28T01:46:57.589Z,102014.78
2018-06-28T01:52:00.696Z,102005.84
2018-06-28T01:57:03.803Z,102016.53
2018-06-28T02:02:06.949Z,102010.80
2018-06-28T02:07:10.553Z,102006.93
2018-06-28T02:12:16.295Z,102013.37
2018-06-28T02:17:20.683Z,102002.74
2018-06-28T02:22:24.148Z,102009.64
2018-06-28T02:27:28.016Z,102004.23
2018-06-28T02:32:33.113Z,102002.25
2018-06-28T02:37:36.862Z,101998.52
2018-06-28T02:42:40.636Z,101992.98
2018-06-28T02:47:44.044Z,101990.46
2018-06-28T02:52:47.651Z,101986.73
2018-06-28T02:57:50.884Z,101984.04
2018-06-28T03:02:54.119Z,101981.02
2018-06-28T03:07:57.284Z,101978.97
2018-06-28T03:13:00.430Z,101981.64
2018-06-28T03:18:03.618Z,101986.38
2018-06-28T03:23:11.226Z,101988.21
2018-06-28T03:28:15.063Z,101987.88
2018-06-28T03:33:18.348Z,101982.95
2018-06-28T03:38:28.334Z,101980.91
2018-06-28T03:43:31.544Z,101981.00
2018-06-28T03:48:34.627Z,101983.69
2018-06-28T03:53:37.812Z,101980.48
2018-06-28T03:58:41.139Z,101982.98
2018-06-28T04:03:44.207Z,101977.86
2018-06-28T04:08:47.362Z,101980.45
2018-06-28T04:13:51.058Z,101974.97
2018-06-28T04:18:54.491Z,101979.91
2018-06-28T04:23:58.192Z,101981.55
2018-06-28T04:29:01.648Z,101981.02
2018-06-28T04:34:05.975Z,101971.19
2018-06-28T04:39:09.432Z,101976.86
2018-06-28T04:44:12.546Z,101961.53
2018-06-28T04:49:15.725Z,101959.97
2018-06-28T04:54:19.046Z,101952.80
2018-06-28T04:59:22.207Z,101964.14
2018-06-28T05:04:25.733Z,101968.95
2018-06-28T05:09:28.861Z,101960.20
2018-06-28T05:14:32.706Z,101954.22
2018-06-28T05:19:35.957Z,101960.94
2018-06-28T05:24:39.202Z,101946.27
2018-06-28T05:29:42.355Z,101957.92
2018-06-28T05:34:45.526Z,101955.33
2018-06-28T05:39:50.742Z,101941.05
2018-06-28T05:44:53.878Z,101935.61
2018-06-28T05:49:57.079Z,101940.73
2018-06-28T05:55:00.245Z,101937.23
2018-06-28T06:00:06.454Z,101942.64
2018-06-28T06:05:10.285Z,101937.96
2018-06-28T06:10:13.813Z,101939.98
2018-06-28T06:15:16.910Z,101948.05
2018-06-28T06:20:20.049Z,101938.94
2018-06-28T06:25:23.217Z,101937.73
2018-06-28T06:30:26.270Z,101929.68
2018-06-28T06:35:29.650Z,101917.97
2018-06-28T06:40:32.855Z,101917.58
2018-06-28T06:45:36.085Z,101917.59
2018-06-28T06:50:39.303Z,101915.00
2018-06-28T06:55:42.457Z,101909.16
2018-06-28T07:00:45.624Z,101897.02
2018-06-28T07:05:49.587Z,101891.49
2018-06-28T07:10:52.722Z,101888.05
2018-06-28T07:15:55.940Z,101881.91
2018-06-28T07:20:59.037Z,101881.18
2018-06-28T07:26:02.841Z,101877.16
2018-06-28T07:31:06.089Z,101875.20
2018-06-28T07:36:09.396Z,101859.37
2018-06-28T07:41:12.972Z,101848.70
2018-06-28T07:46:16.117Z,101843.47
2018-06-28T07:51:19.597Z,101841.90
2018-06-28T07:56:23.241Z,101845.65
2018-06-28T08:01:26.487Z,101831.08
2018-06-28T08:06:29.651Z,101832.70
2018-06-28T08:11:33.062Z,101825.76
2018-06-28T08:16:36.229Z,101818.03
2018-06-28T08:21:39.551Z,101804.05
2018-06-28T08:26:42.986Z,101817.59
2018-06-28T08:31:46.146Z,101812.33
2018-06-28T08:36:49.345Z,101793.71
2018-06-28T08:41:52.503Z,101797.05
2018-06-28T08:46:55.677Z,101792.99
2018-06-28T08:51:58.962Z,101779.24
2018-06-28T08:57:02.219Z,101787.81
2018-06-28T09:02:05.731Z,101764.64
2018-06-28T09:07:09.065Z,101781.30
2018-06-28T09:12:12.213Z,101775.75
2018-06-28T09:17:15.368Z,101775.13
2018-06-28T09:22:18.492Z,101768.45
2018-06-28T09:27:21.615Z,101760.81
2018-06-28T09:32:24.850Z,101749.54
2018-06-28T09:37:28.023Z,101757.28
2018-06-28T09:42:31.191Z,101747.52
2018-06-28T09:47:34.448Z,101744.02
2018-06-28T09:52:37.676Z,101741.47
2018-06-28T09:57:40.974Z,101733.50
2018-06-28T10:02:44.165Z,101733.40
2018-06-28T10:07:47.310Z,101729.06
2018-06-28T10:12:50.455Z,101717.20
2018-06-28T10:17:54.543Z,101701.02
2018-06-28T10:22:58.224Z,101702.98
2018-06-28T10:28:01.477Z,101701.70
2018-06-28T10:33:04.719Z,101686.28
2018-06-28T10:38:07.916Z,101689.28
2018-06-28T10:43:11.145Z,101671.45
2018-06-28T10:48:15.028Z,101671.91
2018-06-28T10:53:18.896Z,101662.20
2018-06-28T10:58:21.966Z,101662.12
2018-06-28T11:03:25.819Z,101661.67
2018-06-28T11:08:28.993Z,101656.10
2018-06-28T11:13:32.202Z,101666.43
2018-06-28T11:18:35.556Z,101652.53
2018-06-28T11:23:38.779Z,101645.94
2018-06-28T11:28:41.925Z,101644.83
2018-06-28T11:33:45.016Z,101640.34
2018-06-28T11:38:48.176Z,101635.43
2018-06-28T11:43:51.323Z,101625.95
2018-06-28T11:48:54.376Z,101619.06
2018-06-28T11:53:57.482Z,101610.02
2018-06-28T11:59:00.555Z,101608.67
2018-06-28T12:04:03.877Z,101591.58
2018-06-28T12:09:07.613Z,101595.84
2018-06-28T12:14:10.803Z,101600.81
2018-06-28T12:19:13.986Z,101583.91
2018-06-28T12:24:17.105Z,101586.98
2018-06-28T12:29:20.226Z,101583.75
2018-06-28T12:34:23.363Z,101579.70
2018-06-28T12:39:26.623Z,101571.63
2018-06-28T12:44:29.730Z,101572.22
2018-06-28T12:49:32.980Z,101561.97
2018-06-28T12:54:36.453Z,101564.74
2018-06-28T12:59:39.714Z,101563.55
2018-06-28T13:04:43.082Z,101562.63
2018-06-28T13:09:46.225Z,101555.23
2018-06-28T13:14:49.413Z,101535.61
2018-06-28T13:19:52.715Z,101537.95
2018-06-28T13:24:55.823Z,101540.79
2018-06-28T13:29:59.006Z,101534.89
2018-06-28T13:35:02.424Z,101541.92
2018-06-28T13:40:05.715Z,101531.56
2018-06-28T13:45:09.027Z,101539.48
2018-06-28T13:50:12.225Z,101526.52
2018-06-28T13:55:15.456Z,101517.54
2018-06-28T14:00:18.840Z,101516.22
2018-06-28T14:05:22.024Z,101513.81
2018-06-28T14:10:25.377Z,101513.03
2018-06-28T14:15:28.605Z,101495.91
2018-06-28T14:20:32.264Z,101489.41
2018-06-28T14:25:35.462Z,101483.67
2018-06-28T14:30:38.732Z,101486.05
2018-06-28T14:35:41.899Z,101485.25
2018-06-28T14:40:45.052Z,101469.50
2018-06-28T14:45:48.227Z,101476.09
2018-06-28T14:50:51.443Z,101470.50
2018-06-28T14:55:54.615Z,101465.87
2018-06-28T15:00:57.779Z,101474.45
2018-06-28T15:06:00.957Z,101471.14
2018-06-28T15:11:04.237Z,101471.73
2018-06-28T15:16:07.720Z,101472.55
2018-06-28T15:21:11.042Z,101469.48
2018-06-28T15:26:14.136Z,101469.87
2018-06-28T15:31:17.462Z,101470.33
2018-06-28T15:36:20.677Z,101471.92
2018-06-28T15:41:24.368Z,101463.28
2018-06-28T15:46:27.831Z,101459.27
2018-06-28T15:51:31.053Z,101450.66
2018-06-28T15:56:34.257Z,101446.41
2018-06-28T16:01:37.440Z,101433.52
2018-06-28T16:06:40.668Z,101431.50
2018-06-28T16:11:43.994Z,101421.80
2018-06-28T16:16:47.128Z,101417.94
2018-06-28T16:21:50.256Z,101415.11
2018-06-28T16:26:53.416Z,101407.64
2018-06-28T16:31:56.508Z,101402.80
2018-06-28T16:36:59.602Z,101406.14
2018-06-28T16:42:03.004Z,101409.06
2018-06-28T16:47:06.181Z,101404.02
2018-06-28T16:52:09.695Z,101411.56
2018-06-28T16:57:12.951Z,101414.32
2018-06-28T17:02:16.091Z,101406.02
2018-06-28T17:07:19.238Z,101403.95
2018-06-28T17:12:22.366Z,101405.27
2018-06-28T17:17:25.469Z,101395.09
2018-06-28T17:22:28.728Z,101405.27
2018-06-28T17:27:31.958Z,101395.81
2018-06-28T17:32:35.259Z,101404.14
2018-06-28T17:37:38.816Z,101406.89
2018-06-28T17:42:42.066Z,101403.27
2018-06-28T17:47:45.288Z,101408.98
2018-06-28T17:52:48.369Z,101411.84
2018-06-28T17:57:51.582Z,101403.11
2018-06-28T18:02:54.831Z,101407.50
2018-06-28T18:07:58.246Z,101405.59
2018-06-28T18:13:01.578Z,101393.11
2018-06-28T18:18:04.962Z,101400.59
2018-06-28T18:23:08.575Z,101406.58
2018-06-28T18:28:12.681Z,101399.90
2018-06-28T18:33:15.851Z,101403.91
2018-06-28T18:38:19.117Z,101403.91
2018-06-28T18:43:22.501Z,101412.69
2018-06-28T18:48:26.239Z,101413.84
2018-06-28T18:53:29.413Z,101416.58
2018-06-28T18:58:32.678Z,101423.42
2018-06-28T19:03:36.590Z,101416.43
2018-06-28T19:08:40.311Z,101421.02
2018-06-28T19:13:43.344Z,101427.92
2018-06-28T19:18:54.942Z,101432.94
2018-06-28T19:24:01.290Z,101429.96
2018-06-28T19:29:05.112Z,101442.38
2018-06-28T19:34:08.881Z,101435.84
2018-06-28T19:39:14.240Z,101444.28
2018-06-28T19:44:20.888Z,101439.48
2018-06-28T19:49:25.319Z,101442.22
2018-06-28T19:54:29.600Z,101436.73
2018-06-28T19:59:33.100Z,101426.25
2018-06-28T20:04:36.304Z,101429.85
2018-06-28T20:09:39.491Z,101438.94
2018-06-28T20:14:45.557Z,101437.19
2018-06-28T20:19:48.887Z,101430.97
2018-06-28T20:24:52.579Z,101426.42
2018-06-28T20:29:56.354Z,101440.26
2018-06-28T20:34:59.646Z,101440.94
2018-06-28T20:40:03.002Z,101440.35
2018-06-28T20:45:06.347Z,101436.33
2018-06-28T20:50:09.469Z,101444.44
2018-06-28T20:55:12.805Z,101451.23
2018-06-28T21:00:15.998Z,101452.23
2018-06-28T21:05:19.183Z,101456.55
2018-06-28T21:10:22.432Z,101456.09
2018-06-28T21:15:25.562Z,101456.73
2018-06-28T21:20:28.759Z,101449.04
2018-06-28T21:25:41.680Z,101462.69
2018-06-28T21:30:57.665Z,101462.38
2018-06-28T21:36:01.192Z,101473.68
2018-06-28T21:41:04.630Z,101473.44
2018-06-28T21:46:07.755Z,101473.80
2018-06-28T21:51:10.854Z,101472.50
2018-06-28T21:56:14.173Z,101471.47
2018-06-28T22:01:17.400Z,101471.00
2018-06-28T22:06:20.576Z,101474.31
2018-06-28T22:11:24.478Z,101468.50
2018-06-28T22:16:27.605Z,101464.02
2018-06-28T22:21:30.778Z,101478.27
2018-06-28T22:26:33.898Z,101464.98
2018-06-28T22:31:37.278Z,101462.80
2018-06-28T22:36:40.654Z,101469.48
2018-06-28T22:41:44.036Z,101458.84
2018-06-28T22:46:47.213Z,101459.34
2018-06-28T22:51:50.578Z,101451.73
2018-06-28T22:56:53.696Z,101452.68
2018-06-28T23:01:56.848Z,101446.83
2018-06-28T23:07:00.206Z,101438.16
2018-06-28T23:12:03.407Z,101442.74
2018-06-28T23:17:06.559Z,101441.91
2018-06-28T23:22:19.810Z,101441.67
2018-06-28T23:27:23.065Z,101442.70
2018-06-28T23:32:26.215Z,101442.24
2018-06-28T23:37:29.449Z,101440.93
2018-06-28T23:42:32.716Z,101448.88
2018-06-28T23:47:36.020Z,101448.45
2018-06-28T23:52:39.103Z,101452.90
2018-06-28T23:57:42.351Z,101436.69
